sensor_id;sensor_type;location;lat;lon;timestamp;temperature;humidity
12632;DHT22;6381;45.748;12.106;2023-02-17T10:23:48;15.30;74.70
12632;DHT22;6381;45.748;12.106;2023-02-17T10:26:25;12.60;97.10
12632;DHT22;6381;45.748;12.106;2023-02-17T12:17:54;12.70;96.70
12632;DHT22;6381;45.748;12.106;2023-02-17T12:20:36;16.10;78.40
12632;DHT22;6381;45.748;12.106;2023-02-17T12:26:29;16.30;74.10
12632;DHT22;6381;45.748;12.106;2023-02-17T12:29:23;15.10;75.30
12632;DHT22;6381;45.748;12.106;2023-02-17T12:32:02;15.30;77.80
12632;DHT22;6381;45.748;12.106;2023-02-17T12:34:37;15.90;75.80
12632;DHT22;6381;45.748;12.106;2023-02-17T12:37:17;16.20;75.30
12632;DHT22;6381;45.748;12.106;2023-02-17T12:39:50;16.50;74.60
12632;DHT22;6381;45.748;12.106;2023-02-17T12:42:24;15.60;75.40
12632;DHT22;6381;45.748;12.106;2023-02-17T12:44:58;15.90;75.20
12632;DHT22;6381;45.748;12.106;2023-02-17T12:47:50;15.80;75.10
12632;DHT22;6381;45.748;12.106;2023-02-17T12:50:26;15.80;75.60
12632;DHT22;6381;45.748;12.106;2023-02-17T12:53:02;16.70;73.70
12632;DHT22;6381;45.748;12.106;2023-02-17T12:55:39;16.70;72.60
12632;DHT22;6381;45.748;12.106;2023-02-17T12:58:17;15.80;73.30
12632;DHT22;6381;45.748;12.106;2023-02-17T13:00:50;15.50;74.60
12632;DHT22;6381;45.748;12.106;2023-02-17T13:03:22;15.00;76.40
12632;DHT22;6381;45.748;12.106;2023-02-17T13:05:58;15.20;77.30
12632;DHT22;6381;45.748;12.106;2023-02-17T13:08:36;16.10;75.70
12632;DHT22;6381;45.748;12.106;2023-02-17T13:11:11;16.30;73.40
12632;DHT22;6381;45.748;12.106;2023-02-17T13:14:09;15.60;74.20
12632;DHT22;6381;45.748;12.106;2023-02-17T13:16:42;15.90;73.10
12632;DHT22;6381;45.748;12.106;2023-02-17T13:19:30;16.60;74.30
12632;DHT22;6381;45.748;12.106;2023-02-17T13:22:00;16.70;71.50
12632;DHT22;6381;45.748;12.106;2023-02-17T13:24:33;16.70;71.20
12632;DHT22;6381;45.748;12.106;2023-02-17T13:27:10;16.60;70.70
12632;DHT22;6381;45.748;12.106;2023-02-17T13:29:40;16.20;71.60
12632;DHT22;6381;45.748;12.106;2023-02-17T13:32:11;15.70;71.90
12632;DHT22;6381;45.748;12.106;2023-02-17T13:35:03;16.00;72.70
12632;DHT22;6381;45.748;12.106;2023-02-17T13:37:38;16.70;70.70
12632;DHT22;6381;45.748;12.106;2023-02-17T13:40:33;16.90;69.70
12632;DHT22;6381;45.748;12.106;2023-02-17T13:43:13;17.30;68.80
12632;DHT22;6381;45.748;12.106;2023-02-17T13:46:03;17.40;69.40
12632;DHT22;6381;45.748;12.106;2023-02-17T13:48:34;16.80;69.10
12632;DHT22;6381;45.748;12.106;2023-02-17T13:51:05;16.80;69.00
12632;DHT22;6381;45.748;12.106;2023-02-17T13:53:38;17.10;68.90
12632;DHT22;6381;45.748;12.106;2023-02-17T13:56:27;16.90;68.90
12632;DHT22;6381;45.748;12.106;2023-02-17T13:59:07;16.60;69.20
12632;DHT22;6381;45.748;12.106;2023-02-17T14:01:40;16.40;70.00
12632;DHT22;6381;45.748;12.106;2023-02-17T14:04:29;15.90;71.70
12632;DHT22;6381;45.748;12.106;2023-02-17T14:07:01;16.00;71.20
12632;DHT22;6381;45.748;12.106;2023-02-17T14:09:32;16.00;72.20
12632;DHT22;6381;45.748;12.106;2023-02-17T14:12:05;16.40;71.30
12632;DHT22;6381;45.748;12.106;2023-02-17T14:14:36;16.00;71.60
12632;DHT22;6381;45.748;12.106;2023-02-17T14:17:11;16.00;72.60
12632;DHT22;6381;45.748;12.106;2023-02-17T14:19:42;15.90;72.20
12632;DHT22;6381;45.748;12.106;2023-02-17T14:22:23;16.00;72.40
12632;DHT22;6381;45.748;12.106;2023-02-17T14:25:07;16.00;71.80
12632;DHT22;6381;45.748;12.106;2023-02-17T14:27:45;15.70;72.80
12632;DHT22;6381;45.748;12.106;2023-02-17T14:30:26;15.80;72.50
12632;DHT22;6381;45.748;12.106;2023-02-17T14:33:04;15.80;73.00
12632;DHT22;6381;45.748;12.106;2023-02-17T14:35:34;15.20;73.70
12632;DHT22;6381;45.748;12.106;2023-02-17T14:38:07;15.20;74.30
12632;DHT22;6381;45.748;12.106;2023-02-17T14:40:54;15.30;75.00
12632;DHT22;6381;45.748;12.106;2023-02-17T14:43:25;15.50;75.60
12632;DHT22;6381;45.748;12.106;2023-02-17T14:45:54;15.50;75.20
12632;DHT22;6381;45.748;12.106;2023-02-17T14:48:40;15.60;74.60
12632;DHT22;6381;45.748;12.106;2023-02-17T14:51:31;15.70;73.70
12632;DHT22;6381;45.748;12.106;2023-02-17T14:54:19;15.60;74.10
12632;DHT22;6381;45.748;12.106;2023-02-17T14:57:02;14.90;75.10
12632;DHT22;6381;45.748;12.106;2023-02-17T14:59:34;14.80;76.90
12632;DHT22;6381;45.748;12.106;2023-02-17T15:02:20;14.40;77.30
12632;DHT22;6381;45.748;12.106;2023-02-17T15:04:49;14.40;79.80
12632;DHT22;6381;45.748;12.106;2023-02-17T15:07:35;14.90;79.60
12632;DHT22;6381;45.748;12.106;2023-02-17T15:10:11;14.60;80.00
12632;DHT22;6381;45.748;12.106;2023-02-17T15:12:42;14.00;81.70
12632;DHT22;6381;45.748;12.106;2023-02-17T15:15:15;13.70;84.50
12632;DHT22;6381;45.748;12.106;2023-02-17T15:18:02;13.50;86.10
12632;DHT22;6381;45.748;12.106;2023-02-17T15:20:31;13.80;87.80
12632;DHT22;6381;45.748;12.106;2023-02-17T15:23:00;13.50;88.90
12632;DHT22;6381;45.748;12.106;2023-02-17T15:25:31;13.30;90.40
12632;DHT22;6381;45.748;12.106;2023-02-17T15:28:02;13.40;91.30
12632;DHT22;6381;45.748;12.106;2023-02-17T15:30:53;13.30;91.80
12632;DHT22;6381;45.748;12.106;2023-02-17T15:33:23;13.30;92.40
12632;DHT22;6381;45.748;12.106;2023-02-17T15:35:53;13.50;92.60
12632;DHT22;6381;45.748;12.106;2023-02-17T15:38:23;13.20;93.10
12632;DHT22;6381;45.748;12.106;2023-02-17T15:40:53;13.00;93.80
12632;DHT22;6381;45.748;12.106;2023-02-17T15:43:32;13.00;94.50
12632;DHT22;6381;45.748;12.106;2023-02-17T15:46:10;12.90;95.00
12632;DHT22;6381;45.748;12.106;2023-02-17T15:48:59;12.70;95.40
12632;DHT22;6381;45.748;12.106;2023-02-17T15:51:28;12.60;96.10
12632;DHT22;6381;45.748;12.106;2023-02-17T15:53:57;12.50;96.40
12632;DHT22;6381;45.748;12.106;2023-02-17T15:56:31;12.60;96.40
12632;DHT22;6381;45.748;12.106;2023-02-17T15:59:06;12.30;97.00
12632;DHT22;6381;45.748;12.106;2023-02-17T16:01:37;12.20;97.40
12632;DHT22;6381;45.748;12.106;2023-02-17T16:04:24;12.30;97.60
12632;DHT22;6381;45.748;12.106;2023-02-17T16:06:53;12.10;97.90
12632;DHT22;6381;45.748;12.106;2023-02-17T16:09:22;12.00;98.00
12632;DHT22;6381;45.748;12.106;2023-02-17T16:11:53;12.00;98.30
12632;DHT22;6381;45.748;12.106;2023-02-17T16:14:41;11.90;98.50
12632;DHT22;6381;45.748;12.106;2023-02-17T16:17:30;12.10;98.50
12632;DHT22;6381;45.748;12.106;2023-02-17T16:19:59;11.90;98.70
12632;DHT22;6381;45.748;12.106;2023-02-17T16:22:28;11.80;99.20
12632;DHT22;6381;45.748;12.106;2023-02-17T16:24:57;11.70;99.50
12632;DHT22;6381;45.748;12.106;2023-02-17T16:27:26;11.80;99.70
12632;DHT22;6381;45.748;12.106;2023-02-17T16:29:55;11.70;99.80
12632;DHT22;6381;45.748;12.106;2023-02-17T16:32:25;11.60;99.90
12632;DHT22;6381;45.748;12.106;2023-02-17T16:35:17;11.50;99.90
12632;DHT22;6381;45.748;12.106;2023-02-17T16:37:51;11.50;99.90
12632;DHT22;6381;45.748;12.106;2023-02-17T16:40:42;11.40;99.90
12632;DHT22;6381;45.748;12.106;2023-02-17T16:43:14;11.50;99.90
12632;DHT22;6381;45.748;12.106;2023-02-17T16:45:49;11.60;99.90
12632;DHT22;6381;45.748;12.106;2023-02-17T16:48:20;11.40;99.90
12632;DHT22;6381;45.748;12.106;2023-02-17T16:50:51;11.40;99.90
12632;DHT22;6381;45.748;12.106;2023-02-17T16:53:23;11.40;99.90
12632;DHT22;6381;45.748;12.106;2023-02-17T16:55:53;11.40;99.90
12632;DHT22;6381;45.748;12.106;2023-02-17T16:58:41;11.50;99.90
12632;DHT22;6381;45.748;12.106;2023-02-17T17:01:10;11.30;99.90
12632;DHT22;6381;45.748;12.106;2023-02-17T17:03:41;11.20;99.90
12632;DHT22;6381;45.748;12.106;2023-02-17T17:06:19;11.20;99.90
12632;DHT22;6381;45.748;12.106;2023-02-17T17:08:49;11.30;99.90
12632;DHT22;6381;45.748;12.106;2023-02-17T17:11:20;11.20;99.90
12632;DHT22;6381;45.748;12.106;2023-02-17T17:13:50;11.20;99.90
12632;DHT22;6381;45.748;12.106;2023-02-17T17:16:20;11.00;99.90
12632;DHT22;6381;45.748;12.106;2023-02-17T17:18:50;11.00;99.90
12632;DHT22;6381;45.748;12.106;2023-02-17T17:21:39;11.10;99.90
12632;DHT22;6381;45.748;12.106;2023-02-17T17:24:08;11.20;99.90
12632;DHT22;6381;45.748;12.106;2023-02-17T17:26:56;11.20;99.90
12632;DHT22;6381;45.748;12.106;2023-02-17T17:29:25;11.00;99.90
12632;DHT22;6381;45.748;12.106;2023-02-17T17:31:55;10.80;99.90
12632;DHT22;6381;45.748;12.106;2023-02-17T17:34:24;10.90;99.90
12632;DHT22;6381;45.748;12.106;2023-02-17T17:36:54;11.00;99.90
12632;DHT22;6381;45.748;12.106;2023-02-17T17:39:40;10.90;99.90
12632;DHT22;6381;45.748;12.106;2023-02-17T17:42:10;11.00;99.90
12632;DHT22;6381;45.748;12.106;2023-02-17T17:44:39;11.10;99.90
12632;DHT22;6381;45.748;12.106;2023-02-17T17:47:12;11.10;99.90
12632;DHT22;6381;45.748;12.106;2023-02-17T17:49:54;10.90;99.90
12632;DHT22;6381;45.748;12.106;2023-02-17T17:52:25;11.00;99.90
12632;DHT22;6381;45.748;12.106;2023-02-17T17:54:54;10.90;99.90
12632;DHT22;6381;45.748;12.106;2023-02-17T17:57:23;11.00;99.90
12632;DHT22;6381;45.748;12.106;2023-02-17T18:00:13;10.90;99.90
12632;DHT22;6381;45.748;12.106;2023-02-17T18:02:42;11.00;99.90
12632;DHT22;6381;45.748;12.106;2023-02-17T18:05:12;10.80;99.90
12632;DHT22;6381;45.748;12.106;2023-02-17T18:07:44;10.70;99.90
12632;DHT22;6381;45.748;12.106;2023-02-17T18:10:16;10.80;99.90
12632;DHT22;6381;45.748;12.106;2023-02-17T18:12:46;11.00;99.90
12632;DHT22;6381;45.748;12.106;2023-02-17T18:15:16;11.10;99.90
12632;DHT22;6381;45.748;12.106;2023-02-17T18:17:47;10.90;99.90
12632;DHT22;6381;45.748;12.106;2023-02-17T18:20:17;10.70;99.90
12632;DHT22;6381;45.748;12.106;2023-02-17T18:22:48;10.30;99.90
12632;DHT22;6381;45.748;12.106;2023-02-17T18:25:52;10.60;99.90
12632;DHT22;6381;45.748;12.106;2023-02-17T18:28:21;10.50;99.90
12632;DHT22;6381;45.748;12.106;2023-02-17T18:30:50;10.30;99.90
12632;DHT22;6381;45.748;12.106;2023-02-17T18:33:19;10.40;99.90
12632;DHT22;6381;45.748;12.106;2023-02-17T18:36:07;10.00;99.90
12632;DHT22;6381;45.748;12.106;2023-02-17T18:38:55;10.20;99.90
12632;DHT22;6381;45.748;12.106;2023-02-17T18:41:42;10.40;99.90
12632;DHT22;6381;45.748;12.106;2023-02-17T18:44:13;10.40;99.90
12632;DHT22;6381;45.748;12.106;2023-02-17T18:46:42;10.40;99.90
12632;DHT22;6381;45.748;12.106;2023-02-17T18:49:11;10.40;99.90
12632;DHT22;6381;45.748;12.106;2023-02-17T18:51:40;10.50;99.90
12632;DHT22;6381;45.748;12.106;2023-02-17T18:54:11;10.40;99.90
12632;DHT22;6381;45.748;12.106;2023-02-17T18:56:40;10.30;99.90
12632;DHT22;6381;45.748;12.106;2023-02-17T18:59:09;10.30;99.90
12632;DHT22;6381;45.748;12.106;2023-02-17T19:01:38;10.50;99.90
12632;DHT22;6381;45.748;12.106;2023-02-17T19:04:42;10.50;99.90
12632;DHT22;6381;45.748;12.106;2023-02-17T19:07:30;10.30;99.90
12632;DHT22;6381;45.748;12.106;2023-02-17T19:10:01;10.50;99.90
12632;DHT22;6381;45.748;12.106;2023-02-17T19:12:30;10.20;99.90
12632;DHT22;6381;45.748;12.106;2023-02-17T19:15:03;10.60;99.90
12632;DHT22;6381;45.748;12.106;2023-02-17T19:17:54;10.10;99.90
12632;DHT22;6381;45.748;12.106;2023-02-17T19:20:25;9.80;99.90
12632;DHT22;6381;45.748;12.106;2023-02-17T19:22:54;10.10;99.90
12632;DHT22;6381;45.748;12.106;2023-02-17T19:25:42;10.10;99.90
12632;DHT22;6381;45.748;12.106;2023-02-17T19:28:11;10.10;99.90
12632;DHT22;6381;45.748;12.106;2023-02-17T19:30:40;10.20;99.90
12632;DHT22;6381;45.748;12.106;2023-02-17T19:33:11;10.30;99.90
12632;DHT22;6381;45.748;12.106;2023-02-17T19:35:40;10.20;99.90
12632;DHT22;6381;45.748;12.106;2023-02-17T19:38:28;9.70;99.90
12632;DHT22;6381;45.748;12.106;2023-02-17T19:41:00;9.70;99.90
12632;DHT22;6381;45.748;12.106;2023-02-17T19:43:48;9.30;99.90
12632;DHT22;6381;45.748;12.106;2023-02-17T19:46:18;9.10;99.90
12632;DHT22;6381;45.748;12.106;2023-02-17T19:48:51;9.00;99.90
12632;DHT22;6381;45.748;12.106;2023-02-17T19:51:20;9.00;99.90
12632;DHT22;6381;45.748;12.106;2023-02-17T19:53:49;8.90;99.90
12632;DHT22;6381;45.748;12.106;2023-02-17T19:56:21;9.20;99.90
12632;DHT22;6381;45.748;12.106;2023-02-17T19:58:51;9.10;99.90
12632;DHT22;6381;45.748;12.106;2023-02-17T20:01:22;9.70;99.90
12632;DHT22;6381;45.748;12.106;2023-02-17T20:03:52;9.60;99.90
12632;DHT22;6381;45.748;12.106;2023-02-17T20:06:24;9.80;99.90
12632;DHT22;6381;45.748;12.106;2023-02-17T20:08:55;9.50;99.90
12632;DHT22;6381;45.748;12.106;2023-02-17T20:11:26;9.10;99.90
12632;DHT22;6381;45.748;12.106;2023-02-17T20:13:57;9.40;99.90
12632;DHT22;6381;45.748;12.106;2023-02-17T20:16:27;9.20;99.90
12632;DHT22;6381;45.748;12.106;2023-02-17T20:18:58;9.30;99.90
12632;DHT22;6381;45.748;12.106;2023-02-17T20:21:29;9.30;99.90
12632;DHT22;6381;45.748;12.106;2023-02-17T20:23:58;9.50;99.90
12632;DHT22;6381;45.748;12.106;2023-02-17T20:26:30;9.20;99.90
12632;DHT22;6381;45.748;12.106;2023-02-17T20:29:00;8.90;99.90
12632;DHT22;6381;45.748;12.106;2023-02-17T20:31:30;9.30;99.90
12632;DHT22;6381;45.748;12.106;2023-02-17T20:34:01;9.20;99.90
12632;DHT22;6381;45.748;12.106;2023-02-17T20:36:32;9.40;99.90
12632;DHT22;6381;45.748;12.106;2023-02-17T20:39:01;9.30;99.90
12632;DHT22;6381;45.748;12.106;2023-02-17T20:41:49;9.30;99.90
12632;DHT22;6381;45.748;12.106;2023-02-17T20:44:36;9.20;99.90
12632;DHT22;6381;45.748;12.106;2023-02-17T20:47:05;9.00;99.90
12632;DHT22;6381;45.748;12.106;2023-02-17T20:49:34;9.40;99.90
12632;DHT22;6381;45.748;12.106;2023-02-17T20:52:22;9.50;99.90
12632;DHT22;6381;45.748;12.106;2023-02-17T20:54:51;9.40;99.90
12632;DHT22;6381;45.748;12.106;2023-02-17T20:57:22;9.20;99.90
12632;DHT22;6381;45.748;12.106;2023-02-17T20:59:51;9.10;99.90
12632;DHT22;6381;45.748;12.106;2023-02-17T21:02:20;9.00;99.90
12632;DHT22;6381;45.748;12.106;2023-02-17T21:04:49;9.30;99.90
12632;DHT22;6381;45.748;12.106;2023-02-17T21:07:20;9.30;99.90
12632;DHT22;6381;45.748;12.106;2023-02-17T21:10:14;9.30;99.90
12632;DHT22;6381;45.748;12.106;2023-02-17T21:12:45;9.10;99.90
12632;DHT22;6381;45.748;12.106;2023-02-17T21:15:15;9.30;99.90
12632;DHT22;6381;45.748;12.106;2023-02-17T21:18:01;9.40;99.90
12632;DHT22;6381;45.748;12.106;2023-02-17T21:20:33;9.10;99.90
12632;DHT22;6381;45.748;12.106;2023-02-17T21:23:19;9.40;99.90
12632;DHT22;6381;45.748;12.106;2023-02-17T21:25:49;9.50;99.90
12632;DHT22;6381;45.748;12.106;2023-02-17T21:28:19;9.50;99.90
12632;DHT22;6381;45.748;12.106;2023-02-17T21:30:48;9.10;99.90
12632;DHT22;6381;45.748;12.106;2023-02-17T21:33:17;9.20;99.90
12632;DHT22;6381;45.748;12.106;2023-02-17T21:35:46;9.40;99.90
12632;DHT22;6381;45.748;12.106;2023-02-17T21:38:50;9.30;99.90
12632;DHT22;6381;45.748;12.106;2023-02-17T21:41:21;9.10;99.90
12632;DHT22;6381;45.748;12.106;2023-02-17T21:43:52;9.10;99.90
12632;DHT22;6381;45.748;12.106;2023-02-17T21:46:38;8.90;99.90
12632;DHT22;6381;45.748;12.106;2023-02-17T21:49:10;8.80;99.90
12632;DHT22;6381;45.748;12.106;2023-02-17T21:51:39;9.00;99.90
12632;DHT22;6381;45.748;12.106;2023-02-17T21:54:09;8.80;99.90
12632;DHT22;6381;45.748;12.106;2023-02-17T21:56:39;8.90;99.90
12632;DHT22;6381;45.748;12.106;2023-02-17T21:59:09;8.70;99.90
12632;DHT22;6381;45.748;12.106;2023-02-17T22:01:38;8.70;99.90
12632;DHT22;6381;45.748;12.106;2023-02-17T22:04:07;8.90;99.90
12632;DHT22;6381;45.748;12.106;2023-02-17T22:06:55;8.50;99.90
12632;DHT22;6381;45.748;12.106;2023-02-17T22:09:25;8.40;99.90
12632;DHT22;6381;45.748;12.106;2023-02-17T22:11:54;8.10;99.90
12632;DHT22;6381;45.748;12.106;2023-02-17T22:14:24;8.40;99.90
12632;DHT22;6381;45.748;12.106;2023-02-17T22:16:54;8.00;99.90
12632;DHT22;6381;45.748;12.106;2023-02-17T22:19:24;8.40;99.90
12632;DHT22;6381;45.748;12.106;2023-02-17T22:21:57;8.30;99.90
12632;DHT22;6381;45.748;12.106;2023-02-17T22:24:27;8.50;99.90
12632;DHT22;6381;45.748;12.106;2023-02-17T22:27:14;8.80;99.90
12632;DHT22;6381;45.748;12.106;2023-02-17T22:29:45;8.70;99.90
12632;DHT22;6381;45.748;12.106;2023-02-17T22:32:14;8.50;99.90
12632;DHT22;6381;45.748;12.106;2023-02-17T22:34:43;8.60;99.90
12632;DHT22;6381;45.748;12.106;2023-02-17T22:37:12;8.50;99.90
12632;DHT22;6381;45.748;12.106;2023-02-17T22:39:42;8.70;99.90
12632;DHT22;6381;45.748;12.106;2023-02-17T22:42:11;8.90;99.90
12632;DHT22;6381;45.748;12.106;2023-02-17T22:44:40;9.00;99.90
12632;DHT22;6381;45.748;12.106;2023-02-17T22:47:10;8.70;99.90
12632;DHT22;6381;45.748;12.106;2023-02-17T22:49:41;8.60;99.90
12632;DHT22;6381;45.748;12.106;2023-02-17T22:52:10;8.60;99.90
12632;DHT22;6381;45.748;12.106;2023-02-17T22:54:39;8.70;99.90
12632;DHT22;6381;45.748;12.106;2023-02-17T22:57:08;8.70;99.90
12632;DHT22;6381;45.748;12.106;2023-02-17T22:59:37;8.60;99.90
12632;DHT22;6381;45.748;12.106;2023-02-17T23:02:06;8.30;99.90
12632;DHT22;6381;45.748;12.106;2023-02-17T23:04:37;8.60;99.90
12632;DHT22;6381;45.748;12.106;2023-02-17T23:07:24;8.60;99.90
12632;DHT22;6381;45.748;12.106;2023-02-17T23:09:53;8.40;99.90
12632;DHT22;6381;45.748;12.106;2023-02-17T23:12:22;8.50;99.90
12632;DHT22;6381;45.748;12.106;2023-02-17T23:14:53;8.60;99.90
12632;DHT22;6381;45.748;12.106;2023-02-17T23:17:22;8.40;99.90
12632;DHT22;6381;45.748;12.106;2023-02-17T23:19:53;8.50;99.90
12632;DHT22;6381;45.748;12.106;2023-02-17T23:22:22;8.50;99.90
12632;DHT22;6381;45.748;12.106;2023-02-17T23:24:51;8.50;99.90
12632;DHT22;6381;45.748;12.106;2023-02-17T23:27:37;8.60;99.90
12632;DHT22;6381;45.748;12.106;2023-02-17T23:30:09;8.40;99.90
12632;DHT22;6381;45.748;12.106;2023-02-17T23:32:39;8.40;99.90
12632;DHT22;6381;45.748;12.106;2023-02-17T23:35:10;8.50;99.90
12632;DHT22;6381;45.748;12.106;2023-02-17T23:37:58;8.50;99.90
12632;DHT22;6381;45.748;12.106;2023-02-17T23:40:27;8.50;99.90
12632;DHT22;6381;45.748;12.106;2023-02-17T23:42:56;8.30;99.90
12632;DHT22;6381;45.748;12.106;2023-02-17T23:45:25;8.30;99.90
12632;DHT22;6381;45.748;12.106;2023-02-17T23:47:54;8.20;99.90
12632;DHT22;6381;45.748;12.106;2023-02-17T23:50:25;8.20;99.90
12632;DHT22;6381;45.748;12.106;2023-02-17T23:52:54;8.10;99.90
12632;DHT22;6381;45.748;12.106;2023-02-17T23:55:23;7.80;99.90
12632;DHT22;6381;45.748;12.106;2023-02-17T23:58:11;8.00;99.90
